sensor_id;sensor_type;location;lat;lon;timestamp;P1;durP1;ratioP1;P2;durP2;ratioP2
3333;SDS011;1679;50.392;8.008;2023-01-28T00:01:38;4.67;;;3.87;;
3333;SDS011;1679;50.392;8.008;2023-01-28T00:04:04;4.13;;;3.73;;
3333;SDS011;1679;50.392;8.008;2023-01-28T00:06:29;4.03;;;3.73;;
3333;SDS011;1679;50.392;8.008;2023-01-28T00:08:55;4.20;;;3.80;;
3333;SDS011;1679;50.392;8.008;2023-01-28T00:11:20;3.77;;;3.47;;
3333;SDS011;1679;50.392;8.008;2023-01-28T00:13:51;3.57;;;3.13;;
3333;SDS011;1679;50.392;8.008;2023-01-28T00:16:18;4.03;;;3.73;;
3333;SDS011;1679;50.392;8.008;2023-01-28T00:18:44;3.27;;;3.00;;
3333;SDS011;1679;50.392;8.008;2023-01-28T00:21:11;3.63;;;3.33;;
3333;SDS011;1679;50.392;8.008;2023-01-28T00:23:38;3.80;;;3.50;;
3333;SDS011;1679;50.392;8.008;2023-01-28T00:26:13;3.20;;;3.00;;
3333;SDS011;1679;50.392;8.008;2023-01-28T00:28:40;4.10;;;3.53;;
3333;SDS011;1679;50.392;8.008;2023-01-28T00:31:09;3.20;;;3.00;;
3333;SDS011;1679;50.392;8.008;2023-01-28T00:33:40;4.10;;;3.80;;
3333;SDS011;1679;50.392;8.008;2023-01-28T00:36:05;3.47;;;3.27;;
3333;SDS011;1679;50.392;8.008;2023-01-28T00:38:31;4.07;;;3.67;;
3333;SDS011;1679;50.392;8.008;2023-01-28T00:43:34;3.60;;;3.30;;
3333;SDS011;1679;50.392;8.008;2023-01-28T00:46:01;3.93;;;3.63;;
3333;SDS011;1679;50.392;8.008;2023-01-28T00:48:27;7.10;;;3.87;;
3333;SDS011;1679;50.392;8.008;2023-01-28T00:50:52;6.33;;;3.60;;
3333;SDS011;1679;50.392;8.008;2023-01-28T00:53:18;4.40;;;3.87;;
3333;SDS011;1679;50.392;8.008;2023-01-28T00:55:45;4.50;;;4.10;;
3333;SDS011;1679;50.392;8.008;2023-01-28T00:58:10;5.37;;;4.07;;
3333;SDS011;1679;50.392;8.008;2023-01-28T01:00:36;3.90;;;3.50;;
3333;SDS011;1679;50.392;8.008;2023-01-28T01:03:01;4.47;;;4.17;;
3333;SDS011;1679;50.392;8.008;2023-01-28T01:05:27;4.03;;;3.73;;
3333;SDS011;1679;50.392;8.008;2023-01-28T01:07:54;4.00;;;3.70;;
3333;SDS011;1679;50.392;8.008;2023-01-28T01:10:19;4.97;;;3.97;;
3333;SDS011;1679;50.392;8.008;2023-01-28T01:12:45;4.50;;;4.10;;
3333;SDS011;1679;50.392;8.008;2023-01-28T01:15:12;4.80;;;4.40;;
3333;SDS011;1679;50.392;8.008;2023-01-28T01:17:41;4.57;;;4.17;;
3333;SDS011;1679;50.392;8.008;2023-01-28T01:20:13;5.70;;;4.60;;
3333;SDS011;1679;50.392;8.008;2023-01-28T01:22:50;5.20;;;4.70;;
3333;SDS011;1679;50.392;8.008;2023-01-28T01:25:15;4.57;;;4.17;;
3333;SDS011;1679;50.392;8.008;2023-01-28T01:27:42;5.20;;;4.67;;
3333;SDS011;1679;50.392;8.008;2023-01-28T01:30:09;3.63;;;3.43;;
3333;SDS011;1679;50.392;8.008;2023-01-28T01:32:35;4.27;;;3.90;;
3333;SDS011;1679;50.392;8.008;2023-01-28T01:35:00;4.60;;;3.83;;
3333;SDS011;1679;50.392;8.008;2023-01-28T01:37:27;4.30;;;3.90;;
3333;SDS011;1679;50.392;8.008;2023-01-28T01:39:53;4.53;;;4.13;;
3333;SDS011;1679;50.392;8.008;2023-01-28T01:42:18;4.50;;;4.10;;
3333;SDS011;1679;50.392;8.008;2023-01-28T01:44:55;4.60;;;4.20;;
3333;SDS011;1679;50.392;8.008;2023-01-28T01:50:41;4.97;;;4.57;;
3333;SDS011;1679;50.392;8.008;2023-01-28T01:53:13;5.13;;;4.63;;
3333;SDS011;1679;50.392;8.008;2023-01-28T01:55:42;4.30;;;4.00;;
3333;SDS011;1679;50.392;8.008;2023-01-28T01:58:14;5.67;;;4.43;;
3333;SDS011;1679;50.392;8.008;2023-01-28T02:00:42;5.83;;;4.80;;
3333;SDS011;1679;50.392;8.008;2023-01-28T02:03:08;4.23;;;3.90;;
3333;SDS011;1679;50.392;8.008;2023-01-28T02:05:34;4.33;;;4.03;;
3333;SDS011;1679;50.392;8.008;2023-01-28T02:08:01;4.00;;;3.70;;
3333;SDS011;1679;50.392;8.008;2023-01-28T02:10:54;6.57;;;4.10;;
3333;SDS011;1679;50.392;8.008;2023-01-28T02:13:26;5.30;;;3.80;;
3333;SDS011;1679;50.392;8.008;2023-01-28T02:15:55;4.07;;;3.70;;
3333;SDS011;1679;50.392;8.008;2023-01-28T02:18:24;3.37;;;3.07;;
3333;SDS011;1679;50.392;8.008;2023-01-28T02:30:09;4.40;;;4.00;;
3333;SDS011;1679;50.392;8.008;2023-01-28T02:32:50;4.07;;;3.77;;
3333;SDS011;1679;50.392;8.008;2023-01-28T02:35:23;4.70;;;4.30;;
3333;SDS011;1679;50.392;8.008;2023-01-28T02:40:37;5.03;;;4.53;;
3333;SDS011;1679;50.392;8.008;2023-01-28T02:45:59;7.70;;;3.40;;
3333;SDS011;1679;50.392;8.008;2023-01-28T02:48:52;4.00;;;3.70;;
3333;SDS011;1679;50.392;8.008;2023-01-28T02:51:25;4.53;;;3.90;;
3333;SDS011;1679;50.392;8.008;2023-01-28T02:54:18;4.27;;;3.87;;
3333;SDS011;1679;50.392;8.008;2023-01-28T02:57:15;4.43;;;3.47;;
3333;SDS011;1679;50.392;8.008;2023-01-28T02:59:50;4.10;;;3.30;;
3333;SDS011;1679;50.392;8.008;2023-01-28T03:02:29;3.73;;;3.43;;
3333;SDS011;1679;50.392;8.008;2023-01-28T03:05:04;4.30;;;3.90;;
3333;SDS011;1679;50.392;8.008;2023-01-28T03:07:39;4.80;;;4.30;;
3333;SDS011;1679;50.392;8.008;2023-01-28T03:10:06;3.70;;;3.40;;
3333;SDS011;1679;50.392;8.008;2023-01-28T03:12:37;2.93;;;2.77;;
3333;SDS011;1679;50.392;8.008;2023-01-28T03:15:24;3.63;;;3.33;;
3333;SDS011;1679;50.392;8.008;2023-01-28T03:18:17;4.50;;;3.67;;
3333;SDS011;1679;50.392;8.008;2023-01-28T03:26:43;3.97;;;3.77;;
3333;SDS011;1679;50.392;8.008;2023-01-28T03:29:36;4.20;;;3.90;;
3333;SDS011;1679;50.392;8.008;2023-01-28T03:32:22;3.20;;;2.90;;
3333;SDS011;1679;50.392;8.008;2023-01-28T03:35:08;4.63;;;4.00;;
3333;SDS011;1679;50.392;8.008;2023-01-28T03:37:54;4.07;;;3.67;;
3333;SDS011;1679;50.392;8.008;2023-01-28T03:40:24;4.00;;;3.80;;
3333;SDS011;1679;50.392;8.008;2023-01-28T03:42:52;4.10;;;3.90;;
3333;SDS011;1679;50.392;8.008;2023-01-28T03:45:18;3.90;;;3.60;;
3333;SDS011;1679;50.392;8.008;2023-01-28T03:47:45;3.17;;;2.93;;
3333;SDS011;1679;50.392;8.008;2023-01-28T03:50:11;3.43;;;3.13;;
3333;SDS011;1679;50.392;8.008;2023-01-28T03:52:37;4.57;;;3.97;;
3333;SDS011;1679;50.392;8.008;2023-01-28T03:55:02;6.10;;;4.20;;
3333;SDS011;1679;50.392;8.008;2023-01-28T03:57:37;3.97;;;3.67;;
3333;SDS011;1679;50.392;8.008;2023-01-28T04:00:03;4.43;;;3.97;;
3333;SDS011;1679;50.392;8.008;2023-01-28T04:02:29;4.10;;;3.70;;
3333;SDS011;1679;50.392;8.008;2023-01-28T04:04:54;4.13;;;3.73;;
3333;SDS011;1679;50.392;8.008;2023-01-28T04:07:22;3.97;;;3.40;;
3333;SDS011;1679;50.392;8.008;2023-01-28T04:09:48;4.03;;;3.73;;
3333;SDS011;1679;50.392;8.008;2023-01-28T04:12:13;3.37;;;3.07;;
3333;SDS011;1679;50.392;8.008;2023-01-28T04:14:40;3.30;;;3.10;;
3333;SDS011;1679;50.392;8.008;2023-01-28T04:17:06;3.40;;;3.20;;
3333;SDS011;1679;50.392;8.008;2023-01-28T04:19:34;4.30;;;3.50;;
3333;SDS011;1679;50.392;8.008;2023-01-28T04:22:02;3.33;;;3.03;;
3333;SDS011;1679;50.392;8.008;2023-01-28T04:24:32;4.13;;;3.77;;
3333;SDS011;1679;50.392;8.008;2023-01-28T04:26:58;4.13;;;3.83;;
3333;SDS011;1679;50.392;8.008;2023-01-28T04:29:23;3.87;;;3.57;;
3333;SDS011;1679;50.392;8.008;2023-01-28T04:31:49;3.60;;;3.20;;
3333;SDS011;1679;50.392;8.008;2023-01-28T04:34:16;5.27;;;3.77;;
3333;SDS011;1679;50.392;8.008;2023-01-28T04:36:44;3.63;;;3.37;;
3333;SDS011;1679;50.392;8.008;2023-01-28T04:39:09;3.67;;;3.30;;
3333;SDS011;1679;50.392;8.008;2023-01-28T04:41:35;3.60;;;3.30;;
3333;SDS011;1679;50.392;8.008;2023-01-28T04:44:02;3.10;;;2.90;;
3333;SDS011;1679;50.392;8.008;2023-01-28T04:46:29;3.63;;;3.43;;
3333;SDS011;1679;50.392;8.008;2023-01-28T04:48:54;3.50;;;3.20;;
3333;SDS011;1679;50.392;8.008;2023-01-28T04:51:20;4.13;;;3.60;;
3333;SDS011;1679;50.392;8.008;2023-01-28T04:53:45;8.10;;;3.97;;
3333;SDS011;1679;50.392;8.008;2023-01-28T04:56:11;4.03;;;3.63;;
3333;SDS011;1679;50.392;8.008;2023-01-28T04:58:36;3.83;;;3.53;;
3333;SDS011;1679;50.392;8.008;2023-01-28T05:01:02;4.30;;;3.90;;
3333;SDS011;1679;50.392;8.008;2023-01-28T05:03:29;4.10;;;3.80;;
3333;SDS011;1679;50.392;8.008;2023-01-28T05:05:54;3.83;;;3.53;;
3333;SDS011;1679;50.392;8.008;2023-01-28T05:08:20;4.40;;;3.60;;
3333;SDS011;1679;50.392;8.008;2023-01-28T05:10:46;4.47;;;3.70;;
3333;SDS011;1679;50.392;8.008;2023-01-28T05:13:11;4.17;;;3.77;;
3333;SDS011;1679;50.392;8.008;2023-01-28T05:15:37;4.53;;;4.20;;
3333;SDS011;1679;50.392;8.008;2023-01-28T05:18:02;4.17;;;3.77;;
3333;SDS011;1679;50.392;8.008;2023-01-28T05:20:28;3.87;;;3.47;;
3333;SDS011;1679;50.392;8.008;2023-01-28T05:22:53;4.77;;;4.30;;
3333;SDS011;1679;50.392;8.008;2023-01-28T05:25:22;4.63;;;4.23;;
3333;SDS011;1679;50.392;8.008;2023-01-28T05:27:50;7.93;;;3.60;;
3333;SDS011;1679;50.392;8.008;2023-01-28T05:30:18;3.97;;;3.67;;
3333;SDS011;1679;50.392;8.008;2023-01-28T05:32:44;4.20;;;3.90;;
3333;SDS011;1679;50.392;8.008;2023-01-28T05:35:10;4.37;;;3.60;;
3333;SDS011;1679;50.392;8.008;2023-01-28T05:37:36;4.67;;;4.13;;
3333;SDS011;1679;50.392;8.008;2023-01-28T05:40:02;4.03;;;3.63;;
3333;SDS011;1679;50.392;8.008;2023-01-28T05:42:28;4.57;;;4.17;;
3333;SDS011;1679;50.392;8.008;2023-01-28T05:44:54;4.40;;;4.03;;
3333;SDS011;1679;50.392;8.008;2023-01-28T05:47:21;4.30;;;3.93;;
3333;SDS011;1679;50.392;8.008;2023-01-28T05:49:46;3.80;;;3.50;;
3333;SDS011;1679;50.392;8.008;2023-01-28T05:52:12;4.20;;;3.80;;
3333;SDS011;1679;50.392;8.008;2023-01-28T05:54:37;4.80;;;4.40;;
3333;SDS011;1679;50.392;8.008;2023-01-28T05:57:04;4.33;;;3.93;;
3333;SDS011;1679;50.392;8.008;2023-01-28T05:59:29;4.57;;;4.13;;
3333;SDS011;1679;50.392;8.008;2023-01-28T06:01:55;4.47;;;4.07;;
3333;SDS011;1679;50.392;8.008;2023-01-28T06:04:21;3.80;;;3.50;;
3333;SDS011;1679;50.392;8.008;2023-01-28T06:06:46;6.30;;;3.80;;
3333;SDS011;1679;50.392;8.008;2023-01-28T06:09:12;5.40;;;4.90;;
3333;SDS011;1679;50.392;8.008;2023-01-28T06:11:38;4.67;;;4.00;;
3333;SDS011;1679;50.392;8.008;2023-01-28T06:14:03;4.43;;;4.03;;
3333;SDS011;1679;50.392;8.008;2023-01-28T06:16:29;7.90;;;4.77;;
3333;SDS011;1679;50.392;8.008;2023-01-28T06:18:55;4.83;;;4.30;;
3333;SDS011;1679;50.392;8.008;2023-01-28T06:21:22;4.63;;;3.93;;
3333;SDS011;1679;50.392;8.008;2023-01-28T06:23:47;7.10;;;6.37;;
3333;SDS011;1679;50.392;8.008;2023-01-28T06:26:13;6.73;;;4.97;;
3333;SDS011;1679;50.392;8.008;2023-01-28T06:28:38;5.40;;;4.90;;
3333;SDS011;1679;50.392;8.008;2023-01-28T06:31:05;4.80;;;4.40;;
3333;SDS011;1679;50.392;8.008;2023-01-28T06:33:31;4.87;;;4.43;;
3333;SDS011;1679;50.392;8.008;2023-01-28T06:35:57;5.13;;;4.63;;
3333;SDS011;1679;50.392;8.008;2023-01-28T06:38:23;4.83;;;4.40;;
3333;SDS011;1679;50.392;8.008;2023-01-28T06:40:52;5.33;;;4.83;;
3333;SDS011;1679;50.392;8.008;2023-01-28T06:43:20;5.30;;;4.80;;
3333;SDS011;1679;50.392;8.008;2023-01-28T06:45:51;15.13;;;9.93;;
3333;SDS011;1679;50.392;8.008;2023-01-28T06:48:18;10.97;;;7.57;;
3333;SDS011;1679;50.392;8.008;2023-01-28T06:50:45;7.53;;;6.20;;
3333;SDS011;1679;50.392;8.008;2023-01-28T06:53:13;8.40;;;6.07;;
3333;SDS011;1679;50.392;8.008;2023-01-28T06:55:39;5.17;;;4.47;;
3333;SDS011;1679;50.392;8.008;2023-01-28T06:58:07;4.50;;;4.20;;
3333;SDS011;1679;50.392;8.008;2023-01-28T07:00:32;4.33;;;3.90;;
3333;SDS011;1679;50.392;8.008;2023-01-28T07:02:58;3.00;;;2.70;;
3333;SDS011;1679;50.392;8.008;2023-01-28T07:05:23;3.00;;;2.70;;
3333;SDS011;1679;50.392;8.008;2023-01-28T07:07:49;3.20;;;3.00;;
3333;SDS011;1679;50.392;8.008;2023-01-28T07:10:15;2.60;;;2.23;;
3333;SDS011;1679;50.392;8.008;2023-01-28T07:12:40;3.90;;;3.60;;
3333;SDS011;1679;50.392;8.008;2023-01-28T07:15:06;2.80;;;2.70;;
3333;SDS011;1679;50.392;8.008;2023-01-28T07:17:32;2.30;;;2.20;;
3333;SDS011;1679;50.392;8.008;2023-01-28T07:19:58;2.30;;;2.10;;
3333;SDS011;1679;50.392;8.008;2023-01-28T07:22:23;2.43;;;1.90;;
3333;SDS011;1679;50.392;8.008;2023-01-28T07:24:49;1.50;;;1.40;;
3333;SDS011;1679;50.392;8.008;2023-01-28T07:27:15;1.57;;;1.47;;
3333;SDS011;1679;50.392;8.008;2023-01-28T07:29:40;2.47;;;2.27;;
3333;SDS011;1679;50.392;8.008;2023-01-28T07:32:06;1.27;;;1.17;;
3333;SDS011;1679;50.392;8.008;2023-01-28T07:34:32;1.50;;;1.40;;
3333;SDS011;1679;50.392;8.008;2023-01-28T07:36:58;1.70;;;1.20;;
3333;SDS011;1679;50.392;8.008;2023-01-28T07:39:27;1.27;;;1.17;;
3333;SDS011;1679;50.392;8.008;2023-01-28T07:41:53;3.63;;;3.30;;
3333;SDS011;1679;50.392;8.008;2023-01-28T07:44:19;4.93;;;3.40;;
3333;SDS011;1679;50.392;8.008;2023-01-28T07:46:46;2.20;;;2.10;;
3333;SDS011;1679;50.392;8.008;2023-01-28T07:49:11;1.90;;;1.80;;
3333;SDS011;1679;50.392;8.008;2023-01-28T07:51:37;3.17;;;2.97;;
3333;SDS011;1679;50.392;8.008;2023-01-28T07:54:03;1.77;;;1.30;;
3333;SDS011;1679;50.392;8.008;2023-01-28T07:56:29;2.73;;;2.53;;
3333;SDS011;1679;50.392;8.008;2023-01-28T07:58:55;1.90;;;1.80;;
3333;SDS011;1679;50.392;8.008;2023-01-28T08:01:21;2.30;;;2.20;;
3333;SDS011;1679;50.392;8.008;2023-01-28T08:03:47;1.47;;;1.37;;
3333;SDS011;1679;50.392;8.008;2023-01-28T08:06:13;2.10;;;2.00;;
3333;SDS011;1679;50.392;8.008;2023-01-28T08:08:38;1.77;;;1.10;;
3333;SDS011;1679;50.392;8.008;2023-01-28T08:11:07;1.87;;;1.60;;
3333;SDS011;1679;50.392;8.008;2023-01-28T08:13:34;1.50;;;1.23;;
3333;SDS011;1679;50.392;8.008;2023-01-28T08:16:00;1.20;;;1.10;;
3333;SDS011;1679;50.392;8.008;2023-01-28T08:18:26;1.40;;;1.27;;
3333;SDS011;1679;50.392;8.008;2023-01-28T08:20:55;2.00;;;1.80;;
3333;SDS011;1679;50.392;8.008;2023-01-28T08:23:23;2.70;;;1.30;;
3333;SDS011;1679;50.392;8.008;2023-01-28T08:25:51;3.53;;;1.50;;
3333;SDS011;1679;50.392;8.008;2023-01-28T08:28:19;1.10;;;1.00;;
3333;SDS011;1679;50.392;8.008;2023-01-28T08:30:45;1.90;;;1.80;;
3333;SDS011;1679;50.392;8.008;2023-01-28T08:33:15;1.60;;;1.50;;
3333;SDS011;1679;50.392;8.008;2023-01-28T08:35:42;1.53;;;1.43;;
3333;SDS011;1679;50.392;8.008;2023-01-28T08:38:09;3.03;;;1.43;;
3333;SDS011;1679;50.392;8.008;2023-01-28T08:40:35;1.43;;;1.23;;
3333;SDS011;1679;50.392;8.008;2023-01-28T08:43:01;1.20;;;1.10;;
3333;SDS011;1679;50.392;8.008;2023-01-28T08:45:28;1.30;;;1.20;;
3333;SDS011;1679;50.392;8.008;2023-01-28T08:47:58;1.23;;;1.13;;
3333;SDS011;1679;50.392;8.008;2023-01-28T08:50:29;1.50;;;1.40;;
3333;SDS011;1679;50.392;8.008;2023-01-28T08:53:01;1.20;;;1.10;;
3333;SDS011;1679;50.392;8.008;2023-01-28T08:55:29;2.10;;;1.47;;
3333;SDS011;1679;50.392;8.008;2023-01-28T08:57:54;1.10;;;1.00;;
3333;SDS011;1679;50.392;8.008;2023-01-28T09:00:21;1.67;;;1.57;;
3333;SDS011;1679;50.392;8.008;2023-01-28T09:02:50;1.10;;;1.00;;
3333;SDS011;1679;50.392;8.008;2023-01-28T09:05:17;1.00;;;0.87;;
3333;SDS011;1679;50.392;8.008;2023-01-28T09:07:44;3.27;;;2.97;;
3333;SDS011;1679;50.392;8.008;2023-01-28T09:10:10;1.43;;;1.33;;
3333;SDS011;1679;50.392;8.008;2023-01-28T09:12:36;1.53;;;1.43;;
3333;SDS011;1679;50.392;8.008;2023-01-28T09:15:02;2.00;;;1.30;;
3333;SDS011;1679;50.392;8.008;2023-01-28T09:17:29;1.37;;;1.27;;
3333;SDS011;1679;50.392;8.008;2023-01-28T09:19:56;1.97;;;1.27;;
3333;SDS011;1679;50.392;8.008;2023-01-28T09:22:21;1.30;;;1.17;;
3333;SDS011;1679;50.392;8.008;2023-01-28T09:24:47;1.37;;;1.27;;
3333;SDS011;1679;50.392;8.008;2023-01-28T09:27:14;1.37;;;1.27;;
3333;SDS011;1679;50.392;8.008;2023-01-28T09:29:41;1.40;;;1.30;;
3333;SDS011;1679;50.392;8.008;2023-01-28T09:32:08;3.57;;;1.37;;
3333;SDS011;1679;50.392;8.008;2023-01-28T09:34:35;2.07;;;1.87;;
3333;SDS011;1679;50.392;8.008;2023-01-28T09:37:01;2.33;;;1.70;;
3333;SDS011;1679;50.392;8.008;2023-01-28T09:39:28;3.20;;;1.90;;
3333;SDS011;1679;50.392;8.008;2023-01-28T09:42:08;2.27;;;1.80;;
3333;SDS011;1679;50.392;8.008;2023-01-28T09:45:16;1.83;;;1.73;;
3333;SDS011;1679;50.392;8.008;2023-01-28T09:47:49;1.77;;;1.67;;
3333;SDS011;1679;50.392;8.008;2023-01-28T09:50:34;1.67;;;1.50;;
3333;SDS011;1679;50.392;8.008;2023-01-28T09:53:15;1.70;;;1.60;;
3333;SDS011;1679;50.392;8.008;2023-01-28T09:55:43;2.10;;;1.83;;
3333;SDS011;1679;50.392;8.008;2023-01-28T09:58:12;2.80;;;2.37;;
3333;SDS011;1679;50.392;8.008;2023-01-28T10:09:13;1.50;;;1.40;;
3333;SDS011;1679;50.392;8.008;2023-01-28T10:18:11;1.70;;;1.60;;
3333;SDS011;1679;50.392;8.008;2023-01-28T10:21:01;2.20;;;1.43;;
3333;SDS011;1679;50.392;8.008;2023-01-28T10:23:33;1.40;;;1.20;;
3333;SDS011;1679;50.392;8.008;2023-01-28T10:26:49;1.50;;;1.33;;
3333;SDS011;1679;50.392;8.008;2023-01-28T10:29:18;2.03;;;1.93;;
3333;SDS011;1679;50.392;8.008;2023-01-28T10:31:54;1.80;;;1.70;;
3333;SDS011;1679;50.392;8.008;2023-01-28T10:34:22;2.63;;;2.40;;
3333;SDS011;1679;50.392;8.008;2023-01-28T10:36:48;2.33;;;2.23;;
3333;SDS011;1679;50.392;8.008;2023-01-28T10:39:17;1.33;;;1.23;;
3333;SDS011;1679;50.392;8.008;2023-01-28T10:41:46;1.57;;;1.47;;
3333;SDS011;1679;50.392;8.008;2023-01-28T10:44:12;2.87;;;1.30;;
3333;SDS011;1679;50.392;8.008;2023-01-28T10:46:44;2.70;;;2.50;;
3333;SDS011;1679;50.392;8.008;2023-01-28T10:51:40;2.50;;;2.30;;
3333;SDS011;1679;50.392;8.008;2023-01-28T10:54:23;2.57;;;2.37;;
3333;SDS011;1679;50.392;8.008;2023-01-28T10:57:00;2.70;;;2.50;;
3333;SDS011;1679;50.392;8.008;2023-01-28T10:59:30;3.93;;;3.50;;
3333;SDS011;1679;50.392;8.008;2023-01-28T11:01:58;1.50;;;1.40;;
3333;SDS011;1679;50.392;8.008;2023-01-28T11:04:28;2.53;;;2.33;;
3333;SDS011;1679;50.392;8.008;2023-01-28T11:09:35;2.10;;;2.00;;
3333;SDS011;1679;50.392;8.008;2023-01-28T11:14:42;2.70;;;2.50;;
3333;SDS011;1679;50.392;8.008;2023-01-28T11:17:15;2.00;;;1.90;;
3333;SDS011;1679;50.392;8.008;2023-01-28T11:19:43;2.43;;;2.17;;
3333;SDS011;1679;50.392;8.008;2023-01-28T11:22:13;1.90;;;1.80;;
3333;SDS011;1679;50.392;8.008;2023-01-28T11:27:45;1.60;;;1.50;;
3333;SDS011;1679;50.392;8.008;2023-01-28T11:30:15;1.87;;;1.70;;
3333;SDS011;1679;50.392;8.008;2023-01-28T11:32:45;1.80;;;1.70;;
3333;SDS011;1679;50.392;8.008;2023-01-28T11:35:23;3.03;;;2.83;;
3333;SDS011;1679;50.392;8.008;2023-01-28T11:37:51;2.80;;;2.00;;
3333;SDS011;1679;50.392;8.008;2023-01-28T11:40:17;1.90;;;1.80;;
3333;SDS011;1679;50.392;8.008;2023-01-28T11:42:48;1.73;;;1.63;;
3333;SDS011;1679;50.392;8.008;2023-01-28T11:45:16;2.57;;;2.37;;
3333;SDS011;1679;50.392;8.008;2023-01-28T11:50:24;4.13;;;3.80;;
3333;SDS011;1679;50.392;8.008;2023-01-28T11:52:57;3.27;;;3.07;;
3333;SDS011;1679;50.392;8.008;2023-01-28T12:12:07;2.43;;;2.33;;
3333;SDS011;1679;50.392;8.008;2023-01-28T12:17:52;2.23;;;2.13;;
3333;SDS011;1679;50.392;8.008;2023-01-28T12:20:41;2.40;;;2.20;;
3333;SDS011;1679;50.392;8.008;2023-01-28T12:34:42;2.00;;;1.80;;
3333;SDS011;1679;50.392;8.008;2023-01-28T12:42:50;3.30;;;3.00;;
3333;SDS011;1679;50.392;8.008;2023-01-28T12:45:40;2.80;;;2.60;;
3333;SDS011;1679;50.392;8.008;2023-01-28T12:51:03;4.37;;;4.07;;
3333;SDS011;1679;50.392;8.008;2023-01-28T12:53:59;3.07;;;2.77;;
3333;SDS011;1679;50.392;8.008;2023-01-28T12:56:34;4.80;;;4.40;;
3333;SDS011;1679;50.392;8.008;2023-01-28T13:01:50;2.63;;;2.43;;
3333;SDS011;1679;50.392;8.008;2023-01-28T13:04:37;3.97;;;2.80;;
3333;SDS011;1679;50.392;8.008;2023-01-28T13:07:31;2.83;;;2.63;;
3333;SDS011;1679;50.392;8.008;2023-01-28T13:10:16;3.10;;;2.90;;
3333;SDS011;1679;50.392;8.008;2023-01-28T13:13:16;3.43;;;3.03;;
3333;SDS011;1679;50.392;8.008;2023-01-28T13:15:48;3.40;;;3.20;;
3333;SDS011;1679;50.392;8.008;2023-01-28T13:19:02;3.67;;;3.40;;
3333;SDS011;1679;50.392;8.008;2023-01-28T13:26:36;2.53;;;2.43;;
3333;SDS011;1679;50.392;8.008;2023-01-28T13:29:47;2.87;;;2.67;;
3333;SDS011;1679;50.392;8.008;2023-01-28T13:32:00;2.93;;;2.73;;
3333;SDS011;1679;50.392;8.008;2023-01-28T13:37:12;3.70;;;3.40;;
3333;SDS011;1679;50.392;8.008;2023-01-28T13:39:49;2.80;;;2.70;;
3333;SDS011;1679;50.392;8.008;2023-01-28T13:42:23;3.50;;;3.20;;
3333;SDS011;1679;50.392;8.008;2023-01-28T13:44:50;4.40;;;4.10;;
3333;SDS011;1679;50.392;8.008;2023-01-28T13:47:20;4.10;;;3.80;;
3333;SDS011;1679;50.392;8.008;2023-01-28T13:50:00;7.13;;;4.77;;
3333;SDS011;1679;50.392;8.008;2023-01-28T13:52:29;7.83;;;5.13;;
3333;SDS011;1679;50.392;8.008;2023-01-28T13:57:51;5.10;;;4.30;;
3333;SDS011;1679;50.392;8.008;2023-01-28T14:00:47;7.57;;;6.90;;
3333;SDS011;1679;50.392;8.008;2023-01-28T14:09:01;4.80;;;3.77;;
3333;SDS011;1679;50.392;8.008;2023-01-28T14:14:33;3.73;;;3.53;;
3333;SDS011;1679;50.392;8.008;2023-01-28T14:20:12;3.53;;;3.33;;
3333;SDS011;1679;50.392;8.008;2023-01-28T14:22:40;3.60;;;3.40;;
3333;SDS011;1679;50.392;8.008;2023-01-28T14:25:10;3.40;;;3.20;;
3333;SDS011;1679;50.392;8.008;2023-01-28T14:27:39;3.40;;;3.20;;
3333;SDS011;1679;50.392;8.008;2023-01-28T14:32:47;3.13;;;2.93;;
3333;SDS011;1679;50.392;8.008;2023-01-28T14:35:17;3.33;;;3.13;;
3333;SDS011;1679;50.392;8.008;2023-01-28T14:37:51;3.03;;;2.83;;
3333;SDS011;1679;50.392;8.008;2023-01-28T14:40:18;3.23;;;3.03;;
3333;SDS011;1679;50.392;8.008;2023-01-28T14:42:46;3.40;;;3.20;;
3333;SDS011;1679;50.392;8.008;2023-01-28T14:50:52;4.00;;;3.80;;
3333;SDS011;1679;50.392;8.008;2023-01-28T14:53:54;4.23;;;3.83;;
3333;SDS011;1679;50.392;8.008;2023-01-28T14:59:17;3.87;;;3.60;;
3333;SDS011;1679;50.392;8.008;2023-01-28T15:01:45;3.67;;;3.47;;
3333;SDS011;1679;50.392;8.008;2023-01-28T15:04:29;3.40;;;3.20;;
3333;SDS011;1679;50.392;8.008;2023-01-28T15:09:41;3.30;;;3.10;;
3333;SDS011;1679;50.392;8.008;2023-01-28T15:12:07;8.73;;;7.63;;
3333;SDS011;1679;50.392;8.008;2023-01-28T15:14:35;8.23;;;6.77;;
3333;SDS011;1679;50.392;8.008;2023-01-28T15:17:00;3.27;;;3.07;;
3333;SDS011;1679;50.392;8.008;2023-01-28T15:19:30;3.43;;;3.23;;
3333;SDS011;1679;50.392;8.008;2023-01-28T15:21:59;7.27;;;6.40;;
3333;SDS011;1679;50.392;8.008;2023-01-28T15:24:27;4.10;;;3.87;;
3333;SDS011;1679;50.392;8.008;2023-01-28T15:26:55;3.93;;;3.40;;
3333;SDS011;1679;50.392;8.008;2023-01-28T15:29:24;3.87;;;3.50;;
3333;SDS011;1679;50.392;8.008;2023-01-28T15:31:55;6.63;;;4.10;;
3333;SDS011;1679;50.392;8.008;2023-01-28T15:34:20;3.97;;;3.67;;
3333;SDS011;1679;50.392;8.008;2023-01-28T15:36:47;4.73;;;4.43;;
3333;SDS011;1679;50.392;8.008;2023-01-28T15:39:15;5.17;;;4.73;;
3333;SDS011;1679;50.392;8.008;2023-01-28T15:41:56;5.97;;;5.47;;
3333;SDS011;1679;50.392;8.008;2023-01-28T15:44:36;6.13;;;4.90;;
3333;SDS011;1679;50.392;8.008;2023-01-28T15:49:52;3.90;;;3.60;;
3333;SDS011;1679;50.392;8.008;2023-01-28T15:52:20;4.90;;;4.40;;
3333;SDS011;1679;50.392;8.008;2023-01-28T15:54:52;4.73;;;3.87;;
3333;SDS011;1679;50.392;8.008;2023-01-28T15:57:24;4.23;;;3.93;;
3333;SDS011;1679;50.392;8.008;2023-01-28T16:00:03;3.70;;;3.40;;
3333;SDS011;1679;50.392;8.008;2023-01-28T16:02:42;3.30;;;3.00;;
3333;SDS011;1679;50.392;8.008;2023-01-28T16:05:30;4.57;;;4.27;;
3333;SDS011;1679;50.392;8.008;2023-01-28T16:08:01;5.13;;;4.77;;
3333;SDS011;1679;50.392;8.008;2023-01-28T16:10:31;5.47;;;5.03;;
3333;SDS011;1679;50.392;8.008;2023-01-28T16:13:00;14.60;;;11.67;;
3333;SDS011;1679;50.392;8.008;2023-01-28T16:15:30;4.73;;;4.33;;
3333;SDS011;1679;50.392;8.008;2023-01-28T16:17:57;5.60;;;5.10;;
3333;SDS011;1679;50.392;8.008;2023-01-28T16:20:26;6.00;;;5.47;;
3333;SDS011;1679;50.392;8.008;2023-01-28T16:22:54;6.13;;;5.57;;
3333;SDS011;1679;50.392;8.008;2023-01-28T16:27:52;8.33;;;7.53;;
3333;SDS011;1679;50.392;8.008;2023-01-28T16:30:18;6.53;;;5.93;;
3333;SDS011;1679;50.392;8.008;2023-01-28T16:32:44;7.03;;;6.30;;
3333;SDS011;1679;50.392;8.008;2023-01-28T16:35:20;6.90;;;6.30;;
3333;SDS011;1679;50.392;8.008;2023-01-28T16:37:49;9.33;;;6.27;;
3333;SDS011;1679;50.392;8.008;2023-01-28T16:40:16;6.47;;;5.73;;
3333;SDS011;1679;50.392;8.008;2023-01-28T16:42:46;5.80;;;5.30;;
3333;SDS011;1679;50.392;8.008;2023-01-28T16:45:18;5.63;;;5.23;;
3333;SDS011;1679;50.392;8.008;2023-01-28T16:47:48;7.53;;;6.83;;
3333;SDS011;1679;50.392;8.008;2023-01-28T16:50:15;9.70;;;8.33;;
3333;SDS011;1679;50.392;8.008;2023-01-28T16:52:42;13.60;;;11.90;;
3333;SDS011;1679;50.392;8.008;2023-01-28T16:55:13;9.47;;;8.47;;
3333;SDS011;1679;50.392;8.008;2023-01-28T16:57:43;9.13;;;8.23;;
3333;SDS011;1679;50.392;8.008;2023-01-28T17:00:19;8.43;;;7.63;;
3333;SDS011;1679;50.392;8.008;2023-01-28T17:02:47;11.53;;;9.60;;
3333;SDS011;1679;50.392;8.008;2023-01-28T17:05:13;16.00;;;12.57;;
3333;SDS011;1679;50.392;8.008;2023-01-28T17:07:39;16.30;;;13.20;;
3333;SDS011;1679;50.392;8.008;2023-01-28T17:10:05;12.50;;;11.20;;
3333;SDS011;1679;50.392;8.008;2023-01-28T17:12:31;12.30;;;11.10;;
3333;SDS011;1679;50.392;8.008;2023-01-28T17:14:57;11.80;;;10.70;;
3333;SDS011;1679;50.392;8.008;2023-01-28T17:17:23;10.97;;;9.80;;
3333;SDS011;1679;50.392;8.008;2023-01-28T17:19:49;8.07;;;7.27;;
3333;SDS011;1679;50.392;8.008;2023-01-28T17:22:15;26.90;;;19.40;;
3333;SDS011;1679;50.392;8.008;2023-01-28T17:24:40;22.73;;;17.63;;
3333;SDS011;1679;50.392;8.008;2023-01-28T17:27:06;33.60;;;22.93;;
3333;SDS011;1679;50.392;8.008;2023-01-28T17:29:33;45.73;;;32.47;;
3333;SDS011;1679;50.392;8.008;2023-01-28T17:31:59;31.13;;;21.83;;
3333;SDS011;1679;50.392;8.008;2023-01-28T17:34:24;25.80;;;19.00;;
3333;SDS011;1679;50.392;8.008;2023-01-28T17:36:50;16.70;;;14.60;;
3333;SDS011;1679;50.392;8.008;2023-01-28T17:39:15;26.57;;;18.40;;
3333;SDS011;1679;50.392;8.008;2023-01-28T17:41:41;15.83;;;11.90;;
3333;SDS011;1679;50.392;8.008;2023-01-28T17:44:09;19.63;;;14.33;;
3333;SDS011;1679;50.392;8.008;2023-01-28T17:46:36;24.80;;;17.30;;
3333;SDS011;1679;50.392;8.008;2023-01-28T17:49:02;13.93;;;11.53;;
3333;SDS011;1679;50.392;8.008;2023-01-28T17:51:28;27.40;;;20.43;;